sensor_id;sensor_type;location;lat;lon;timestamp;P1;durP1;ratioP1;P2;durP2;ratioP2
32485;SDS011;18935;52.236;21.134;2022-08-04T00:02:23;20.30;;;9.95;;
32485;SDS011;18935;52.236;21.134;2022-08-04T00:05:01;14.20;;;10.40;;
32485;SDS011;18935;52.236;21.134;2022-08-04T00:07:34;15.35;;;9.63;;
32485;SDS011;18935;52.236;21.134;2022-08-04T00:10:07;13.82;;;10.57;;
32485;SDS011;18935;52.236;21.134;2022-08-04T00:12:36;13.45;;;9.75;;
32485;SDS011;18935;52.236;21.134;2022-08-04T00:15:06;13.32;;;10.05;;
32485;SDS011;18935;52.236;21.134;2022-08-04T00:17:38;14.13;;;10.25;;
32485;SDS011;18935;52.236;21.134;2022-08-04T00:20:07;14.80;;;9.82;;
32485;SDS011;18935;52.236;21.134;2022-08-04T00:22:36;14.52;;;9.90;;
32485;SDS011;18935;52.236;21.134;2022-08-04T00:25:04;13.13;;;9.90;;
32485;SDS011;18935;52.236;21.134;2022-08-04T00:27:31;14.60;;;10.07;;
32485;SDS011;18935;52.236;21.134;2022-08-04T00:29:57;19.25;;;10.20;;
32485;SDS011;18935;52.236;21.134;2022-08-04T00:32:24;19.73;;;10.35;;
32485;SDS011;18935;52.236;21.134;2022-08-04T00:34:50;13.00;;;10.32;;
32485;SDS011;18935;52.236;21.134;2022-08-04T00:37:17;12.52;;;10.07;;
32485;SDS011;18935;52.236;21.134;2022-08-04T00:39:45;19.98;;;9.88;;
32485;SDS011;18935;52.236;21.134;2022-08-04T00:42:18;11.57;;;9.95;;
32485;SDS011;18935;52.236;21.134;2022-08-04T00:47:54;15.18;;;10.77;;
32485;SDS011;18935;52.236;21.134;2022-08-04T00:53:18;17.20;;;10.25;;
32485;SDS011;18935;52.236;21.134;2022-08-04T00:59:13;12.30;;;10.50;;
32485;SDS011;18935;52.236;21.134;2022-08-04T01:01:58;14.05;;;10.95;;
32485;SDS011;18935;52.236;21.134;2022-08-04T01:07:16;13.23;;;10.38;;
32485;SDS011;18935;52.236;21.134;2022-08-04T01:12:50;15.80;;;10.35;;
32485;SDS011;18935;52.236;21.134;2022-08-04T01:15:39;21.02;;;10.18;;
32485;SDS011;18935;52.236;21.134;2022-08-04T01:18:28;25.73;;;11.07;;
32485;SDS011;18935;52.236;21.134;2022-08-04T01:26:50;11.45;;;9.73;;
32485;SDS011;18935;52.236;21.134;2022-08-04T01:29:36;17.50;;;11.13;;
32485;SDS011;18935;52.236;21.134;2022-08-04T01:32:30;13.95;;;10.52;;
32485;SDS011;18935;52.236;21.134;2022-08-04T01:35:04;15.88;;;10.00;;
32485;SDS011;18935;52.236;21.134;2022-08-04T01:37:59;14.98;;;10.10;;
32485;SDS011;18935;52.236;21.134;2022-08-04T01:40:31;11.02;;;9.88;;
32485;SDS011;18935;52.236;21.134;2022-08-04T01:42:59;19.05;;;10.30;;
32485;SDS011;18935;52.236;21.134;2022-08-04T01:45:27;14.30;;;9.93;;
32485;SDS011;18935;52.236;21.134;2022-08-04T01:47:54;11.07;;;9.95;;
32485;SDS011;18935;52.236;21.134;2022-08-04T01:50:20;11.52;;;9.65;;
32485;SDS011;18935;52.236;21.134;2022-08-04T01:52:47;11.63;;;9.90;;
32485;SDS011;18935;52.236;21.134;2022-08-04T01:55:13;14.48;;;9.43;;
32485;SDS011;18935;52.236;21.134;2022-08-04T01:57:46;12.13;;;9.95;;
32485;SDS011;18935;52.236;21.134;2022-08-04T02:00:14;11.20;;;10.02;;
32485;SDS011;18935;52.236;21.134;2022-08-04T02:02:42;13.63;;;9.65;;
32485;SDS011;18935;52.236;21.134;2022-08-04T02:05:09;16.02;;;10.02;;
32485;SDS011;18935;52.236;21.134;2022-08-04T02:10:26;18.80;;;9.75;;
32485;SDS011;18935;52.236;21.134;2022-08-04T02:15:42;13.30;;;10.27;;
32485;SDS011;18935;52.236;21.134;2022-08-04T02:18:23;13.20;;;10.00;;
32485;SDS011;18935;52.236;21.134;2022-08-04T02:20:57;12.32;;;10.40;;
32485;SDS011;18935;52.236;21.134;2022-08-04T02:23:34;13.93;;;9.93;;
32485;SDS011;18935;52.236;21.134;2022-08-04T02:26:05;14.63;;;9.60;;
32485;SDS011;18935;52.236;21.134;2022-08-04T02:28:43;12.93;;;9.60;;
32485;SDS011;18935;52.236;21.134;2022-08-04T02:33:56;19.45;;;11.02;;
32485;SDS011;18935;52.236;21.134;2022-08-04T02:36:27;16.40;;;10.02;;
32485;SDS011;18935;52.236;21.134;2022-08-04T02:38:58;13.00;;;10.40;;
32485;SDS011;18935;52.236;21.134;2022-08-04T02:41:25;12.48;;;10.13;;
32485;SDS011;18935;52.236;21.134;2022-08-04T02:43:53;14.18;;;11.48;;
32485;SDS011;18935;52.236;21.134;2022-08-04T02:46:21;16.75;;;12.63;;
32485;SDS011;18935;52.236;21.134;2022-08-04T02:48:53;17.55;;;10.73;;
32485;SDS011;18935;52.236;21.134;2022-08-04T02:51:20;15.93;;;10.70;;
32485;SDS011;18935;52.236;21.134;2022-08-04T02:54:06;13.63;;;10.45;;
32485;SDS011;18935;52.236;21.134;2022-08-04T02:56:33;12.20;;;10.05;;
32485;SDS011;18935;52.236;21.134;2022-08-04T02:59:01;15.55;;;11.30;;
32485;SDS011;18935;52.236;21.134;2022-08-04T03:01:31;14.65;;;10.80;;
32485;SDS011;18935;52.236;21.134;2022-08-04T03:04:12;13.13;;;10.85;;
32485;SDS011;18935;52.236;21.134;2022-08-04T03:12:50;16.27;;;10.68;;
32485;SDS011;18935;52.236;21.134;2022-08-04T03:15:35;13.80;;;10.02;;
32485;SDS011;18935;52.236;21.134;2022-08-04T03:24:23;14.52;;;10.07;;
32485;SDS011;18935;52.236;21.134;2022-08-04T03:32:44;19.35;;;11.10;;
32485;SDS011;18935;52.236;21.134;2022-08-04T03:38:15;19.85;;;10.57;;
32485;SDS011;18935;52.236;21.134;2022-08-04T03:40:52;14.27;;;10.32;;
32485;SDS011;18935;52.236;21.134;2022-08-04T03:43:56;14.93;;;10.25;;
32485;SDS011;18935;52.236;21.134;2022-08-04T03:49:29;16.42;;;10.80;;
32485;SDS011;18935;52.236;21.134;2022-08-04T03:52:18;17.15;;;10.32;;
32485;SDS011;18935;52.236;21.134;2022-08-04T03:58:55;14.75;;;9.77;;
32485;SDS011;18935;52.236;21.134;2022-08-04T04:01:41;14.27;;;9.25;;
32485;SDS011;18935;52.236;21.134;2022-08-04T04:10:59;17.17;;;9.38;;
32485;SDS011;18935;52.236;21.134;2022-08-04T04:27:15;15.68;;;8.65;;
32485;SDS011;18935;52.236;21.134;2022-08-04T04:46:44;8.82;;;7.40;;
32485;SDS011;18935;52.236;21.134;2022-08-04T04:49:36;18.90;;;6.80;;
32485;SDS011;18935;52.236;21.134;2022-08-04T04:52:11;8.00;;;6.20;;
32485;SDS011;18935;52.236;21.134;2022-08-04T04:57:34;11.73;;;6.50;;
32485;SDS011;18935;52.236;21.134;2022-08-04T05:13:53;12.70;;;5.60;;
32485;SDS011;18935;52.236;21.134;2022-08-04T05:22:01;11.60;;;5.78;;
32485;SDS011;18935;52.236;21.134;2022-08-04T05:24:30;10.82;;;5.78;;
32485;SDS011;18935;52.236;21.134;2022-08-04T05:27:02;11.20;;;5.28;;
32485;SDS011;18935;52.236;21.134;2022-08-04T05:29:37;5.28;;;4.28;;
32485;SDS011;18935;52.236;21.134;2022-08-04T05:32:16;9.00;;;5.82;;
32485;SDS011;18935;52.236;21.134;2022-08-04T05:37:39;9.35;;;4.53;;
32485;SDS011;18935;52.236;21.134;2022-08-04T05:40:06;8.35;;;4.85;;
32485;SDS011;18935;52.236;21.134;2022-08-04T05:42:39;6.07;;;4.20;;
32485;SDS011;18935;52.236;21.134;2022-08-04T05:45:05;6.93;;;4.38;;
32485;SDS011;18935;52.236;21.134;2022-08-04T05:47:32;5.93;;;4.15;;
32485;SDS011;18935;52.236;21.134;2022-08-04T05:50:03;6.30;;;3.95;;
32485;SDS011;18935;52.236;21.134;2022-08-04T05:52:30;8.40;;;4.20;;
32485;SDS011;18935;52.236;21.134;2022-08-04T05:54:58;12.48;;;6.20;;
32485;SDS011;18935;52.236;21.134;2022-08-04T05:57:25;7.93;;;4.25;;
32485;SDS011;18935;52.236;21.134;2022-08-04T05:59:52;4.10;;;3.70;;
32485;SDS011;18935;52.236;21.134;2022-08-04T06:02:20;5.60;;;4.15;;
32485;SDS011;18935;52.236;21.134;2022-08-04T06:04:49;7.43;;;3.80;;
32485;SDS011;18935;52.236;21.134;2022-08-04T06:07:16;7.00;;;4.03;;
32485;SDS011;18935;52.236;21.134;2022-08-04T06:09:42;4.90;;;3.97;;
32485;SDS011;18935;52.236;21.134;2022-08-04T06:12:16;9.25;;;3.90;;
32485;SDS011;18935;52.236;21.134;2022-08-04T06:14:46;4.47;;;3.80;;
32485;SDS011;18935;52.236;21.134;2022-08-04T06:17:25;11.77;;;4.25;;
32485;SDS011;18935;52.236;21.134;2022-08-04T06:19:58;14.00;;;3.85;;
32485;SDS011;18935;52.236;21.134;2022-08-04T06:22:25;10.25;;;3.78;;
32485;SDS011;18935;52.236;21.134;2022-08-04T06:24:53;8.38;;;3.80;;
32485;SDS011;18935;52.236;21.134;2022-08-04T06:27:20;9.38;;;3.45;;
32485;SDS011;18935;52.236;21.134;2022-08-04T06:29:47;8.48;;;3.40;;
32485;SDS011;18935;52.236;21.134;2022-08-04T06:32:14;17.08;;;3.95;;
32485;SDS011;18935;52.236;21.134;2022-08-04T06:34:53;12.13;;;3.95;;
32485;SDS011;18935;52.236;21.134;2022-08-04T06:37:20;8.35;;;3.20;;
32485;SDS011;18935;52.236;21.134;2022-08-04T06:39:46;11.55;;;3.08;;
32485;SDS011;18935;52.236;21.134;2022-08-04T06:42:12;6.22;;;2.97;;
32485;SDS011;18935;52.236;21.134;2022-08-04T06:44:38;4.65;;;3.10;;
32485;SDS011;18935;52.236;21.134;2022-08-04T06:47:04;6.93;;;2.78;;
32485;SDS011;18935;52.236;21.134;2022-08-04T06:49:33;5.05;;;3.00;;
32485;SDS011;18935;52.236;21.134;2022-08-04T06:52:02;6.55;;;3.30;;
32485;SDS011;18935;52.236;21.134;2022-08-04T06:54:27;12.45;;;2.72;;
32485;SDS011;18935;52.236;21.134;2022-08-04T06:56:53;7.18;;;3.30;;
32485;SDS011;18935;52.236;21.134;2022-08-04T06:59:22;7.40;;;2.80;;
32485;SDS011;18935;52.236;21.134;2022-08-04T07:01:48;5.65;;;3.22;;
32485;SDS011;18935;52.236;21.134;2022-08-04T07:04:14;8.05;;;2.75;;
32485;SDS011;18935;52.236;21.134;2022-08-04T07:06:40;8.40;;;3.00;;
32485;SDS011;18935;52.236;21.134;2022-08-04T07:09:06;5.00;;;2.63;;
32485;SDS011;18935;52.236;21.134;2022-08-04T07:11:32;4.43;;;2.67;;
32485;SDS011;18935;52.236;21.134;2022-08-04T07:13:58;9.35;;;2.53;;
32485;SDS011;18935;52.236;21.134;2022-08-04T07:16:23;6.60;;;2.65;;
32485;SDS011;18935;52.236;21.134;2022-08-04T07:18:49;6.32;;;2.30;;
32485;SDS011;18935;52.236;21.134;2022-08-04T07:21:19;3.20;;;2.65;;
32485;SDS011;18935;52.236;21.134;2022-08-04T07:23:46;3.00;;;2.25;;
32485;SDS011;18935;52.236;21.134;2022-08-04T07:28:43;9.13;;;2.47;;
32485;SDS011;18935;52.236;21.134;2022-08-04T07:31:13;6.93;;;2.75;;
32485;SDS011;18935;52.236;21.134;2022-08-04T07:33:41;4.68;;;1.88;;
32485;SDS011;18935;52.236;21.134;2022-08-04T07:36:07;3.47;;;2.30;;
32485;SDS011;18935;52.236;21.134;2022-08-04T07:38:33;10.00;;;2.78;;
32485;SDS011;18935;52.236;21.134;2022-08-04T07:40:58;5.25;;;2.35;;
32485;SDS011;18935;52.236;21.134;2022-08-04T07:43:24;6.55;;;2.47;;
32485;SDS011;18935;52.236;21.134;2022-08-04T07:45:51;4.95;;;2.45;;
32485;SDS011;18935;52.236;21.134;2022-08-04T07:48:17;6.35;;;2.35;;
32485;SDS011;18935;52.236;21.134;2022-08-04T07:50:42;6.13;;;2.50;;
32485;SDS011;18935;52.236;21.134;2022-08-04T07:53:08;9.27;;;2.53;;
32485;SDS011;18935;52.236;21.134;2022-08-04T07:55:36;6.05;;;2.60;;
32485;SDS011;18935;52.236;21.134;2022-08-04T07:58:02;3.63;;;2.30;;
32485;SDS011;18935;52.236;21.134;2022-08-04T08:00:27;6.70;;;2.47;;
32485;SDS011;18935;52.236;21.134;2022-08-04T08:02:53;5.82;;;2.20;;
32485;SDS011;18935;52.236;21.134;2022-08-04T08:05:19;6.65;;;2.35;;
32485;SDS011;18935;52.236;21.134;2022-08-04T08:07:46;5.93;;;2.45;;
32485;SDS011;18935;52.236;21.134;2022-08-04T08:12:41;5.80;;;2.22;;
32485;SDS011;18935;52.236;21.134;2022-08-04T08:15:08;5.35;;;1.98;;
32485;SDS011;18935;52.236;21.134;2022-08-04T08:17:36;9.15;;;2.20;;
32485;SDS011;18935;52.236;21.134;2022-08-04T08:20:02;6.35;;;2.28;;
32485;SDS011;18935;52.236;21.134;2022-08-04T08:22:28;7.60;;;2.33;;
32485;SDS011;18935;52.236;21.134;2022-08-04T08:24:56;3.92;;;2.05;;
32485;SDS011;18935;52.236;21.134;2022-08-04T08:27:25;7.57;;;2.20;;
32485;SDS011;18935;52.236;21.134;2022-08-04T08:29:51;6.57;;;2.15;;
32485;SDS011;18935;52.236;21.134;2022-08-04T08:32:16;10.05;;;2.40;;
32485;SDS011;18935;52.236;21.134;2022-08-04T08:34:43;3.75;;;2.35;;
32485;SDS011;18935;52.236;21.134;2022-08-04T08:40:14;3.33;;;2.55;;
32485;SDS011;18935;52.236;21.134;2022-08-04T08:57:19;14.43;;;3.53;;
32485;SDS011;18935;52.236;21.134;2022-08-04T08:59:52;15.02;;;2.63;;
32485;SDS011;18935;52.236;21.134;2022-08-04T09:03:16;7.05;;;2.10;;
32485;SDS011;18935;52.236;21.134;2022-08-04T09:08:49;5.53;;;2.58;;
32485;SDS011;18935;52.236;21.134;2022-08-04T09:11:41;2.92;;;1.77;;
32485;SDS011;18935;52.236;21.134;2022-08-04T09:14:16;3.75;;;1.80;;
32485;SDS011;18935;52.236;21.134;2022-08-04T09:16:49;4.10;;;2.03;;
32485;SDS011;18935;52.236;21.134;2022-08-04T09:19:26;3.72;;;2.10;;
32485;SDS011;18935;52.236;21.134;2022-08-04T09:22:00;7.28;;;1.90;;
32485;SDS011;18935;52.236;21.134;2022-08-04T09:29:42;5.65;;;2.20;;
32485;SDS011;18935;52.236;21.134;2022-08-04T09:32:33;5.25;;;2.30;;
32485;SDS011;18935;52.236;21.134;2022-08-04T09:35:41;7.97;;;2.28;;
32485;SDS011;18935;52.236;21.134;2022-08-04T09:38:15;5.40;;;2.38;;
32485;SDS011;18935;52.236;21.134;2022-08-04T09:40:50;3.08;;;2.20;;
32485;SDS011;18935;52.236;21.134;2022-08-04T09:46:10;4.88;;;2.65;;
32485;SDS011;18935;52.236;21.134;2022-08-04T09:49:13;8.80;;;2.33;;
32485;SDS011;18935;52.236;21.134;2022-08-04T10:02:14;9.73;;;2.50;;
32485;SDS011;18935;52.236;21.134;2022-08-04T10:04:42;8.57;;;2.40;;
32485;SDS011;18935;52.236;21.134;2022-08-04T10:12:34;5.88;;;2.35;;
32485;SDS011;18935;52.236;21.134;2022-08-04T10:15:32;5.65;;;2.63;;
32485;SDS011;18935;52.236;21.134;2022-08-04T10:20:58;6.20;;;2.80;;
32485;SDS011;18935;52.236;21.134;2022-08-04T10:26:26;3.67;;;2.33;;
32485;SDS011;18935;52.236;21.134;2022-08-04T10:28:59;7.32;;;2.22;;
32485;SDS011;18935;52.236;21.134;2022-08-04T10:31:35;4.72;;;2.72;;
32485;SDS011;18935;52.236;21.134;2022-08-04T10:34:11;7.40;;;2.50;;
32485;SDS011;18935;52.236;21.134;2022-08-04T10:36:52;7.80;;;2.90;;
32485;SDS011;18935;52.236;21.134;2022-08-04T10:39:32;6.95;;;2.60;;
32485;SDS011;18935;52.236;21.134;2022-08-04T10:42:48;5.28;;;2.90;;
32485;SDS011;18935;52.236;21.134;2022-08-04T10:45:22;8.13;;;2.60;;
32485;SDS011;18935;52.236;21.134;2022-08-04T10:47:57;4.38;;;2.78;;
32485;SDS011;18935;52.236;21.134;2022-08-04T10:50:26;9.45;;;2.90;;
32485;SDS011;18935;52.236;21.134;2022-08-04T10:52:59;4.35;;;3.00;;
32485;SDS011;18935;52.236;21.134;2022-08-04T10:55:36;6.78;;;2.90;;
32485;SDS011;18935;52.236;21.134;2022-08-04T10:58:08;2.95;;;2.63;;
32485;SDS011;18935;52.236;21.134;2022-08-04T11:00:40;4.13;;;2.92;;
32485;SDS011;18935;52.236;21.134;2022-08-04T11:05:56;6.40;;;2.78;;
32485;SDS011;18935;52.236;21.134;2022-08-04T11:08:32;4.10;;;2.80;;
32485;SDS011;18935;52.236;21.134;2022-08-04T11:13:33;4.15;;;2.70;;
32485;SDS011;18935;52.236;21.134;2022-08-04T11:16:18;5.03;;;2.70;;
32485;SDS011;18935;52.236;21.134;2022-08-04T11:18:56;4.47;;;2.60;;
32485;SDS011;18935;52.236;21.134;2022-08-04T11:21:51;5.25;;;2.60;;
32485;SDS011;18935;52.236;21.134;2022-08-04T11:27:01;6.38;;;2.80;;
32485;SDS011;18935;52.236;21.134;2022-08-04T11:29:45;4.35;;;2.78;;
32485;SDS011;18935;52.236;21.134;2022-08-04T11:32:25;5.28;;;2.50;;
32485;SDS011;18935;52.236;21.134;2022-08-04T11:35:02;4.20;;;2.80;;
32485;SDS011;18935;52.236;21.134;2022-08-04T11:40:35;3.20;;;2.42;;
32485;SDS011;18935;52.236;21.134;2022-08-04T11:43:15;5.45;;;2.83;;
32485;SDS011;18935;52.236;21.134;2022-08-04T11:45:53;4.53;;;2.55;;
32485;SDS011;18935;52.236;21.134;2022-08-04T11:48:30;3.75;;;2.60;;
32485;SDS011;18935;52.236;21.134;2022-08-04T11:50:59;3.38;;;2.60;;
32485;SDS011;18935;52.236;21.134;2022-08-04T11:53:29;5.13;;;2.70;;
32485;SDS011;18935;52.236;21.134;2022-08-04T11:55:58;5.47;;;3.00;;
32485;SDS011;18935;52.236;21.134;2022-08-04T12:04:01;6.13;;;2.60;;
32485;SDS011;18935;52.236;21.134;2022-08-04T12:06:29;4.43;;;2.90;;
32485;SDS011;18935;52.236;21.134;2022-08-04T12:09:14;4.43;;;2.78;;
32485;SDS011;18935;52.236;21.134;2022-08-04T12:11:50;3.72;;;2.40;;
32485;SDS011;18935;52.236;21.134;2022-08-04T12:14:42;3.35;;;2.60;;
32485;SDS011;18935;52.236;21.134;2022-08-04T12:17:11;2.65;;;2.38;;
32485;SDS011;18935;52.236;21.134;2022-08-04T12:19:52;8.95;;;2.50;;
32485;SDS011;18935;52.236;21.134;2022-08-04T12:22:21;5.85;;;2.50;;
32485;SDS011;18935;52.236;21.134;2022-08-04T12:24:52;11.43;;;2.70;;
32485;SDS011;18935;52.236;21.134;2022-08-04T12:27:24;4.00;;;2.58;;
32485;SDS011;18935;52.236;21.134;2022-08-04T12:29:53;5.10;;;2.35;;
32485;SDS011;18935;52.236;21.134;2022-08-04T12:32:25;6.40;;;2.80;;
32485;SDS011;18935;52.236;21.134;2022-08-04T12:35:02;3.83;;;2.80;;
32485;SDS011;18935;52.236;21.134;2022-08-04T12:40:30;6.65;;;2.45;;
32485;SDS011;18935;52.236;21.134;2022-08-04T12:43:30;7.28;;;2.65;;
32485;SDS011;18935;52.236;21.134;2022-08-04T12:46:03;4.32;;;2.63;;
32485;SDS011;18935;52.236;21.134;2022-08-04T12:48:32;4.97;;;2.70;;
32485;SDS011;18935;52.236;21.134;2022-08-04T12:51:00;8.65;;;2.30;;
32485;SDS011;18935;52.236;21.134;2022-08-04T12:53:27;5.50;;;2.25;;
32485;SDS011;18935;52.236;21.134;2022-08-04T12:55:56;2.65;;;2.28;;
32485;SDS011;18935;52.236;21.134;2022-08-04T12:58:31;2.80;;;2.20;;
32485;SDS011;18935;52.236;21.134;2022-08-04T13:01:02;5.63;;;2.40;;
32485;SDS011;18935;52.236;21.134;2022-08-04T13:03:38;3.63;;;2.42;;
32485;SDS011;18935;52.236;21.134;2022-08-04T13:06:16;3.13;;;2.30;;
32485;SDS011;18935;52.236;21.134;2022-08-04T13:08:52;3.45;;;2.20;;
32485;SDS011;18935;52.236;21.134;2022-08-04T13:11:20;2.67;;;2.30;;
32485;SDS011;18935;52.236;21.134;2022-08-04T13:13:53;3.15;;;2.65;;
32485;SDS011;18935;52.236;21.134;2022-08-04T13:16:29;5.45;;;2.45;;
32485;SDS011;18935;52.236;21.134;2022-08-04T13:21:57;7.50;;;2.92;;
32485;SDS011;18935;52.236;21.134;2022-08-04T13:24:24;4.60;;;2.45;;
32485;SDS011;18935;52.236;21.134;2022-08-04T13:27:02;5.38;;;2.30;;
32485;SDS011;18935;52.236;21.134;2022-08-04T13:29:35;7.72;;;2.60;;
32485;SDS011;18935;52.236;21.134;2022-08-04T13:32:05;2.75;;;2.55;;
32485;SDS011;18935;52.236;21.134;2022-08-04T13:34:33;5.00;;;2.53;;
32485;SDS011;18935;52.236;21.134;2022-08-04T13:37:00;3.50;;;2.40;;
32485;SDS011;18935;52.236;21.134;2022-08-04T13:39:30;5.00;;;2.42;;
32485;SDS011;18935;52.236;21.134;2022-08-04T13:41:57;4.50;;;2.10;;
32485;SDS011;18935;52.236;21.134;2022-08-04T13:44:30;5.35;;;2.53;;
32485;SDS011;18935;52.236;21.134;2022-08-04T13:47:00;3.13;;;2.10;;
32485;SDS011;18935;52.236;21.134;2022-08-04T13:49:30;6.40;;;2.30;;
32485;SDS011;18935;52.236;21.134;2022-08-04T13:52:00;3.97;;;2.20;;
32485;SDS011;18935;52.236;21.134;2022-08-04T13:54:47;6.40;;;2.10;;
32485;SDS011;18935;52.236;21.134;2022-08-04T13:57:16;4.57;;;2.60;;
32485;SDS011;18935;52.236;21.134;2022-08-04T13:59:48;4.43;;;2.42;;
32485;SDS011;18935;52.236;21.134;2022-08-04T14:05:27;8.48;;;2.25;;
32485;SDS011;18935;52.236;21.134;2022-08-04T14:07:54;2.80;;;2.45;;
32485;SDS011;18935;52.236;21.134;2022-08-04T14:10:24;5.18;;;2.63;;
32485;SDS011;18935;52.236;21.134;2022-08-04T14:12:51;6.43;;;2.60;;
32485;SDS011;18935;52.236;21.134;2022-08-04T14:15:36;8.13;;;3.95;;
32485;SDS011;18935;52.236;21.134;2022-08-04T14:18:24;8.15;;;2.40;;
32485;SDS011;18935;52.236;21.134;2022-08-04T14:23:24;8.05;;;2.58;;
32485;SDS011;18935;52.236;21.134;2022-08-04T14:25:50;3.35;;;2.30;;
32485;SDS011;18935;52.236;21.134;2022-08-04T14:28:26;9.73;;;2.50;;
32485;SDS011;18935;52.236;21.134;2022-08-04T14:30:53;4.47;;;2.42;;
32485;SDS011;18935;52.236;21.134;2022-08-04T14:33:37;2.97;;;2.42;;
32485;SDS011;18935;52.236;21.134;2022-08-04T14:36:07;4.93;;;2.60;;
32485;SDS011;18935;52.236;21.134;2022-08-04T14:38:40;3.25;;;2.50;;
32485;SDS011;18935;52.236;21.134;2022-08-04T14:41:14;7.05;;;2.70;;
32485;SDS011;18935;52.236;21.134;2022-08-04T14:43:45;7.75;;;2.40;;
32485;SDS011;18935;52.236;21.134;2022-08-04T14:46:15;2.80;;;2.17;;
32485;SDS011;18935;52.236;21.134;2022-08-04T14:49:10;7.20;;;2.80;;
32485;SDS011;18935;52.236;21.134;2022-08-04T14:51:40;3.70;;;2.65;;
32485;SDS011;18935;52.236;21.134;2022-08-04T14:54:11;4.63;;;2.28;;
32485;SDS011;18935;52.236;21.134;2022-08-04T14:56:41;4.60;;;2.30;;
32485;SDS011;18935;52.236;21.134;2022-08-04T14:59:22;4.10;;;2.40;;
32485;SDS011;18935;52.236;21.134;2022-08-04T15:01:49;6.97;;;2.90;;
32485;SDS011;18935;52.236;21.134;2022-08-04T15:04:16;3.65;;;2.53;;
32485;SDS011;18935;52.236;21.134;2022-08-04T15:06:43;8.18;;;2.85;;
32485;SDS011;18935;52.236;21.134;2022-08-04T15:09:10;3.85;;;2.10;;
32485;SDS011;18935;52.236;21.134;2022-08-04T15:11:36;3.55;;;2.30;;
32485;SDS011;18935;52.236;21.134;2022-08-04T15:14:02;4.65;;;2.30;;
32485;SDS011;18935;52.236;21.134;2022-08-04T15:16:29;7.18;;;2.78;;
32485;SDS011;18935;52.236;21.134;2022-08-04T15:19:14;3.58;;;2.55;;
32485;SDS011;18935;52.236;21.134;2022-08-04T15:21:40;5.25;;;2.40;;
32485;SDS011;18935;52.236;21.134;2022-08-04T15:24:05;9.50;;;2.42;;
32485;SDS011;18935;52.236;21.134;2022-08-04T15:26:35;4.65;;;2.03;;
32485;SDS011;18935;52.236;21.134;2022-08-04T15:29:12;2.42;;;1.92;;
32485;SDS011;18935;52.236;21.134;2022-08-04T15:31:41;4.55;;;2.20;;
32485;SDS011;18935;52.236;21.134;2022-08-04T15:34:10;3.85;;;2.40;;
32485;SDS011;18935;52.236;21.134;2022-08-04T15:36:55;4.47;;;2.00;;
32485;SDS011;18935;52.236;21.134;2022-08-04T15:39:37;5.80;;;2.30;;
32485;SDS011;18935;52.236;21.134;2022-08-04T15:42:19;4.00;;;2.38;;
32485;SDS011;18935;52.236;21.134;2022-08-04T15:50:27;3.60;;;2.50;;
32485;SDS011;18935;52.236;21.134;2022-08-04T15:55:31;7.47;;;3.60;;
32485;SDS011;18935;52.236;21.134;2022-08-04T15:58:16;6.35;;;2.50;;
32485;SDS011;18935;52.236;21.134;2022-08-04T16:01:26;5.90;;;2.00;;
32485;SDS011;18935;52.236;21.134;2022-08-04T16:05:54;5.00;;;2.00;;
32485;SDS011;18935;52.236;21.134;2022-08-04T16:08:20;3.07;;;2.10;;
32485;SDS011;18935;52.236;21.134;2022-08-04T16:10:45;6.20;;;2.53;;
32485;SDS011;18935;52.236;21.134;2022-08-04T16:13:13;8.30;;;2.47;;
32485;SDS011;18935;52.236;21.134;2022-08-04T16:20:49;9.93;;;2.20;;
32485;SDS011;18935;52.236;21.134;2022-08-04T16:23:39;4.57;;;2.25;;
32485;SDS011;18935;52.236;21.134;2022-08-04T16:29:03;3.58;;;2.30;;
32485;SDS011;18935;52.236;21.134;2022-08-04T16:34:37;5.03;;;2.10;;
32485;SDS011;18935;52.236;21.134;2022-08-04T16:37:05;3.90;;;2.00;;
32485;SDS011;18935;52.236;21.134;2022-08-04T16:39:33;3.88;;;2.00;;
32485;SDS011;18935;52.236;21.134;2022-08-04T16:41:59;7.35;;;2.17;;
32485;SDS011;18935;52.236;21.134;2022-08-04T16:44:30;7.22;;;2.22;;
32485;SDS011;18935;52.236;21.134;2022-08-04T16:46:59;9.43;;;2.53;;
32485;SDS011;18935;52.236;21.134;2022-08-04T16:49:25;4.32;;;2.30;;
32485;SDS011;18935;52.236;21.134;2022-08-04T16:51:53;4.20;;;1.80;;
32485;SDS011;18935;52.236;21.134;2022-08-04T16:54:20;8.82;;;2.08;;
32485;SDS011;18935;52.236;21.134;2022-08-04T16:56:46;4.72;;;2.10;;
32485;SDS011;18935;52.236;21.134;2022-08-04T16:59:12;6.93;;;1.98;;
32485;SDS011;18935;52.236;21.134;2022-08-04T17:01:45;5.20;;;2.10;;
32485;SDS011;18935;52.236;21.134;2022-08-04T17:04:12;4.60;;;2.10;;
32485;SDS011;18935;52.236;21.134;2022-08-04T17:06:38;4.18;;;2.33;;
32485;SDS011;18935;52.236;21.134;2022-08-04T17:09:09;7.32;;;2.00;;
32485;SDS011;18935;52.236;21.134;2022-08-04T17:11:35;8.13;;;2.17;;
32485;SDS011;18935;52.236;21.134;2022-08-04T17:14:00;5.35;;;2.25;;
32485;SDS011;18935;52.236;21.134;2022-08-04T17:16:25;9.75;;;2.40;;
32485;SDS011;18935;52.236;21.134;2022-08-04T17:18:53;6.90;;;2.35;;
32485;SDS011;18935;52.236;21.134;2022-08-04T17:21:23;7.65;;;2.67;;
32485;SDS011;18935;52.236;21.134;2022-08-04T17:23:52;7.30;;;2.42;;
32485;SDS011;18935;52.236;21.134;2022-08-04T17:26:21;3.75;;;2.40;;
32485;SDS011;18935;52.236;21.134;2022-08-04T17:28:50;2.83;;;2.30;;
32485;SDS011;18935;52.236;21.134;2022-08-04T17:31:17;4.67;;;2.20;;
32485;SDS011;18935;52.236;21.134;2022-08-04T17:33:43;6.45;;;2.20;;
32485;SDS011;18935;52.236;21.134;2022-08-04T17:36:11;4.40;;;2.22;;
32485;SDS011;18935;52.236;21.134;2022-08-04T17:38:39;8.13;;;2.60;;
32485;SDS011;18935;52.236;21.134;2022-08-04T17:41:09;6.13;;;2.30;;
32485;SDS011;18935;52.236;21.134;2022-08-04T17:43:48;3.95;;;2.60;;
32485;SDS011;18935;52.236;21.134;2022-08-04T17:46:21;8.40;;;2.58;;
32485;SDS011;18935;52.236;21.134;2022-08-04T17:54:20;4.13;;;2.70;;
32485;SDS011;18935;52.236;21.134;2022-08-04T17:56:58;5.93;;;2.60;;
32485;SDS011;18935;52.236;21.134;2022-08-04T17:59:26;6.30;;;2.55;;
32485;SDS011;18935;52.236;21.134;2022-08-04T18:01:55;4.95;;;2.30;;
32485;SDS011;18935;52.236;21.134;2022-08-04T18:04:23;5.82;;;2.65;;
32485;SDS011;18935;52.236;21.134;2022-08-04T18:12:49;6.97;;;2.80;;
32485;SDS011;18935;52.236;21.134;2022-08-04T18:14:58;9.27;;;2.70;;
32485;SDS011;18935;52.236;21.134;2022-08-04T18:17:39;8.07;;;3.17;;
32485;SDS011;18935;52.236;21.134;2022-08-04T18:20:13;6.55;;;2.50;;
32485;SDS011;18935;52.236;21.134;2022-08-04T18:22:43;9.73;;;2.80;;
32485;SDS011;18935;52.236;21.134;2022-08-04T18:25:13;8.30;;;2.70;;
32485;SDS011;18935;52.236;21.134;2022-08-04T18:27:53;7.93;;;3.08;;
32485;SDS011;18935;52.236;21.134;2022-08-04T18:30:20;6.53;;;2.67;;
32485;SDS011;18935;52.236;21.134;2022-08-04T18:32:47;5.25;;;3.05;;
32485;SDS011;18935;52.236;21.134;2022-08-04T18:35:12;6.22;;;3.55;;
32485;SDS011;18935;52.236;21.134;2022-08-04T18:37:38;6.10;;;3.22;;
32485;SDS011;18935;52.236;21.134;2022-08-04T18:40:05;12.35;;;2.92;;
32485;SDS011;18935;52.236;21.134;2022-08-04T18:42:31;11.25;;;4.07;;
32485;SDS011;18935;52.236;21.134;2022-08-04T18:44:56;7.53;;;3.75;;
32485;SDS011;18935;52.236;21.134;2022-08-04T18:47:22;12.20;;;6.20;;
32485;SDS011;18935;52.236;21.134;2022-08-04T18:49:51;11.07;;;4.40;;
32485;SDS011;18935;52.236;21.134;2022-08-04T18:52:17;7.28;;;4.65;;
32485;SDS011;18935;52.236;21.134;2022-08-04T18:54:43;8.07;;;3.47;;